sensor_id;sensor_type;location;lat;lon;timestamp;pressure;altitude;pressure_sealevel;temperature;humidity
35489;BME280;21602;55.670;37.578;2023-02-28T00:01:24;99622.63;;;-6.60;87.00
35489;BME280;21602;55.670;37.578;2023-02-28T00:03:50;99614.94;;;-6.61;86.84
35489;BME280;21602;55.670;37.578;2023-02-28T00:06:17;99614.13;;;-6.62;86.94
35489;BME280;21602;55.670;37.578;2023-02-28T00:08:42;99620.41;;;-6.64;86.94
35489;BME280;21602;55.670;37.578;2023-02-28T00:11:11;99613.66;;;-6.67;86.99
35489;BME280;21602;55.670;37.578;2023-02-28T00:13:41;99608.81;;;-6.72;87.30
35489;BME280;21602;55.670;37.578;2023-02-28T00:16:13;99605.63;;;-6.75;87.24
35489;BME280;21602;55.670;37.578;2023-02-28T00:18:40;99605.53;;;-6.74;87.19
35489;BME280;21602;55.670;37.578;2023-02-28T00:21:07;99603.75;;;-6.73;87.31
35489;BME280;21602;55.670;37.578;2023-02-28T00:23:33;99597.72;;;-6.74;87.03
35489;BME280;21602;55.670;37.578;2023-02-28T00:25:59;99589.22;;;-6.76;87.45
35489;BME280;21602;55.670;37.578;2023-02-28T00:28:25;99588.88;;;-6.82;87.27
35489;BME280;21602;55.670;37.578;2023-02-28T00:30:52;99586.16;;;-6.81;87.19
35489;BME280;21602;55.670;37.578;2023-02-28T00:33:18;99585.69;;;-6.86;86.88
35489;BME280;21602;55.670;37.578;2023-02-28T00:35:43;99584.50;;;-6.93;87.05
35489;BME280;21602;55.670;37.578;2023-02-28T00:38:13;99590.53;;;-6.92;86.81
35489;BME280;21602;55.670;37.578;2023-02-28T00:40:39;99576.94;;;-6.96;87.09
35489;BME280;21602;55.670;37.578;2023-02-28T00:43:04;99588.38;;;-6.99;87.04
35489;BME280;21602;55.670;37.578;2023-02-28T00:45:30;99585.28;;;-7.04;86.83
35489;BME280;21602;55.670;37.578;2023-02-28T00:47:57;99584.47;;;-7.04;86.92
35489;BME280;21602;55.670;37.578;2023-02-28T00:50:24;99579.03;;;-7.12;86.94
35489;BME280;21602;55.670;37.578;2023-02-28T00:52:50;99574.19;;;-7.17;87.22
35489;BME280;21602;55.670;37.578;2023-02-28T00:55:16;99568.16;;;-7.17;87.20
35489;BME280;21602;55.670;37.578;2023-02-28T00:57:41;99568.06;;;-7.16;87.02
35489;BME280;21602;55.670;37.578;2023-02-28T01:00:09;99566.53;;;-7.18;87.17
35489;BME280;21602;55.670;37.578;2023-02-28T01:02:35;99562.16;;;-7.18;87.23
35489;BME280;21602;55.670;37.578;2023-02-28T01:05:01;99552.94;;;-7.22;87.12
35489;BME280;21602;55.670;37.578;2023-02-28T01:07:29;99558.03;;;-7.20;87.43
35489;BME280;21602;55.670;37.578;2023-02-28T01:09:55;99557.09;;;-7.19;87.19
35489;BME280;21602;55.670;37.578;2023-02-28T01:12:21;99549.31;;;-7.19;87.35
35489;BME280;21602;55.670;37.578;2023-02-28T01:14:46;99554.38;;;-7.18;87.04
35489;BME280;21602;55.670;37.578;2023-02-28T01:17:13;99544.59;;;-7.26;87.13
35489;BME280;21602;55.670;37.578;2023-02-28T01:19:39;99536.34;;;-7.31;87.41
35489;BME280;21602;55.670;37.578;2023-02-28T01:22:06;99531.38;;;-7.34;87.37
35489;BME280;21602;55.670;37.578;2023-02-28T01:24:34;99521.81;;;-7.33;87.52
35489;BME280;21602;55.670;37.578;2023-02-28T01:27:04;99515.69;;;-7.32;87.33
35489;BME280;21602;55.670;37.578;2023-02-28T01:29:30;99518.41;;;-7.34;87.41
35489;BME280;21602;55.670;37.578;2023-02-28T01:31:55;99510.84;;;-7.37;87.36
35489;BME280;21602;55.670;37.578;2023-02-28T01:34:22;99511.91;;;-7.39;87.56
35489;BME280;21602;55.670;37.578;2023-02-28T01:36:48;99502.56;;;-7.42;87.54
35489;BME280;21602;55.670;37.578;2023-02-28T01:39:13;99492.69;;;-7.48;87.73
35489;BME280;21602;55.670;37.578;2023-02-28T01:41:45;99488.44;;;-7.49;87.48
35489;BME280;21602;55.670;37.578;2023-02-28T01:47:14;99493.38;;;-7.57;88.06
35489;BME280;21602;55.670;37.578;2023-02-28T01:49:40;99484.63;;;-7.56;88.10
35489;BME280;21602;55.670;37.578;2023-02-28T01:52:06;99477.81;;;-7.57;87.96
35489;BME280;21602;55.670;37.578;2023-02-28T01:54:34;99482.03;;;-7.56;87.59
35489;BME280;21602;55.670;37.578;2023-02-28T01:57:09;99460.34;;;-7.55;88.07
35489;BME280;21602;55.670;37.578;2023-02-28T01:59:41;99443.88;;;-7.54;88.00
35489;BME280;21602;55.670;37.578;2023-02-28T02:02:12;99446.81;;;-7.59;88.26
35489;BME280;21602;55.670;37.578;2023-02-28T02:04:41;99456.47;;;-7.61;88.06
35489;BME280;21602;55.670;37.578;2023-02-28T02:07:10;99457.75;;;-7.66;88.67
35489;BME280;21602;55.670;37.578;2023-02-28T02:09:38;99452.69;;;-7.68;88.24
35489;BME280;21602;55.670;37.578;2023-02-28T02:12:14;99453.50;;;-7.67;88.17
35489;BME280;21602;55.670;37.578;2023-02-28T02:17:35;99439.00;;;-7.70;88.90
35489;BME280;21602;55.670;37.578;2023-02-28T02:20:50;99433.47;;;-7.65;88.64
35489;BME280;21602;55.670;37.578;2023-02-28T02:26:21;99421.69;;;-7.69;88.88
35489;BME280;21602;55.670;37.578;2023-02-28T02:29:08;99423.34;;;-7.68;88.66
35489;BME280;21602;55.670;37.578;2023-02-28T02:34:47;99425.00;;;-7.67;88.90
35489;BME280;21602;55.670;37.578;2023-02-28T02:37:21;99423.56;;;-7.71;89.07
35489;BME280;21602;55.670;37.578;2023-02-28T02:40:04;99415.31;;;-7.77;89.32
35489;BME280;21602;55.670;37.578;2023-02-28T02:43:01;99415.31;;;-7.77;88.92
35489;BME280;21602;55.670;37.578;2023-02-28T02:45:39;99416.38;;;-7.79;89.55
35489;BME280;21602;55.670;37.578;2023-02-28T02:48:09;99407.22;;;-7.72;89.62
35489;BME280;21602;55.670;37.578;2023-02-28T02:50:54;99397.78;;;-7.73;89.36
35489;BME280;21602;55.670;37.578;2023-02-28T02:53:25;99398.94;;;-7.77;89.32
35489;BME280;21602;55.670;37.578;2023-02-28T02:55:53;99392.69;;;-7.75;89.17
35489;BME280;21602;55.670;37.578;2023-02-28T02:58:27;99394.59;;;-7.77;89.31
35489;BME280;21602;55.670;37.578;2023-02-28T03:00:58;99377.97;;;-7.74;89.29
35489;BME280;21602;55.670;37.578;2023-02-28T03:03:27;99373.88;;;-7.77;89.47
35489;BME280;21602;55.670;37.578;2023-02-28T03:05:58;99364.31;;;-7.76;89.67
35489;BME280;21602;55.670;37.578;2023-02-28T03:08:25;99368.47;;;-7.74;89.30
35489;BME280;21602;55.670;37.578;2023-02-28T03:10:55;99359.81;;;-7.74;89.32
35489;BME280;21602;55.670;37.578;2023-02-28T03:24:50;99346.06;;;-7.63;88.92
35489;BME280;21602;55.670;37.578;2023-02-28T03:30:17;99334.28;;;-7.67;88.89
35489;BME280;21602;55.670;37.578;2023-02-28T03:35:45;99324.59;;;-7.65;88.70
35489;BME280;21602;55.670;37.578;2023-02-28T03:38:22;99286.66;;;-7.66;88.60
35489;BME280;21602;55.670;37.578;2023-02-28T03:40:58;99313.53;;;-7.67;88.60
35489;BME280;21602;55.670;37.578;2023-02-28T03:43:30;99301.53;;;-7.68;88.57
35489;BME280;21602;55.670;37.578;2023-02-28T03:45:59;99297.28;;;-7.69;88.38
35489;BME280;21602;55.670;37.578;2023-02-28T03:48:33;99280.19;;;-7.72;88.50
35489;BME280;21602;55.670;37.578;2023-02-28T03:51:03;99277.16;;;-7.77;88.44
35489;BME280;21602;55.670;37.578;2023-02-28T03:53:36;99288.22;;;-7.75;88.51
35489;BME280;21602;55.670;37.578;2023-02-28T03:56:14;99278.56;;;-7.73;88.08
35489;BME280;21602;55.670;37.578;2023-02-28T04:01:37;99252.28;;;-7.68;87.90
35489;BME280;21602;55.670;37.578;2023-02-28T04:04:04;99260.06;;;-7.68;87.76
35489;BME280;21602;55.670;37.578;2023-02-28T04:06:31;99248.88;;;-7.69;87.71
35489;BME280;21602;55.670;37.578;2023-02-28T04:08:57;99260.16;;;-7.70;87.60
35489;BME280;21602;55.670;37.578;2023-02-28T04:11:33;99255.09;;;-7.71;87.45
35489;BME280;21602;55.670;37.578;2023-02-28T04:14:01;99246.38;;;-7.70;87.33
35489;BME280;21602;55.670;37.578;2023-02-28T04:16:28;99213.75;;;-7.73;87.18
35489;BME280;21602;55.670;37.578;2023-02-28T04:18:54;99225.78;;;-7.72;87.48
35489;BME280;21602;55.670;37.578;2023-02-28T04:21:34;99240.00;;;-7.66;87.05
35489;BME280;21602;55.670;37.578;2023-02-28T04:24:01;99222.56;;;-7.64;86.79
35489;BME280;21602;55.670;37.578;2023-02-28T04:26:32;99230.69;;;-7.58;86.86
35489;BME280;21602;55.670;37.578;2023-02-28T04:28:59;99230.69;;;-7.58;86.42
35489;BME280;21602;55.670;37.578;2023-02-28T04:31:25;99234.69;;;-7.54;86.64
35489;BME280;21602;55.670;37.578;2023-02-28T04:33:51;99221.38;;;-7.49;86.47
35489;BME280;21602;55.670;37.578;2023-02-28T04:36:17;99224.41;;;-7.44;86.03
35489;BME280;21602;55.670;37.578;2023-02-28T04:38:46;99226.28;;;-7.46;85.69
35489;BME280;21602;55.670;37.578;2023-02-28T04:41:12;99221.38;;;-7.49;85.45
35489;BME280;21602;55.670;37.578;2023-02-28T04:43:38;99226.56;;;-7.49;85.49
35489;BME280;21602;55.670;37.578;2023-02-28T04:46:05;99224.56;;;-7.57;85.39
35489;BME280;21602;55.670;37.578;2023-02-28T04:48:34;99222.78;;;-7.56;85.20
35489;BME280;21602;55.670;37.578;2023-02-28T04:51:04;99214.78;;;-7.53;85.51
35489;BME280;21602;55.670;37.578;2023-02-28T04:53:30;99211.09;;;-7.51;85.32
35489;BME280;21602;55.670;37.578;2023-02-28T04:55:57;99205.53;;;-7.46;84.96
35489;BME280;21602;55.670;37.578;2023-02-28T04:58:23;99184.56;;;-7.43;84.59
35489;BME280;21602;55.670;37.578;2023-02-28T05:00:50;99181.03;;;-7.42;84.26
35489;BME280;21602;55.670;37.578;2023-02-28T05:03:16;99183.25;;;-7.37;84.22
35489;BME280;21602;55.670;37.578;2023-02-28T05:05:41;99186.66;;;-7.37;84.02
35489;BME280;21602;55.670;37.578;2023-02-28T05:08:07;99181.25;;;-7.34;83.78
35489;BME280;21602;55.670;37.578;2023-02-28T05:10:33;99184.03;;;-7.26;83.25
35489;BME280;21602;55.670;37.578;2023-02-28T05:12:59;99170.81;;;-7.23;82.94
35489;BME280;21602;55.670;37.578;2023-02-28T05:15:25;99174.56;;;-7.15;82.28
35489;BME280;21602;55.670;37.578;2023-02-28T05:17:51;99155.66;;;-7.06;82.01
35489;BME280;21602;55.670;37.578;2023-02-28T05:20:17;99150.63;;;-6.98;80.96
35489;BME280;21602;55.670;37.578;2023-02-28T05:22:43;99145.91;;;-6.93;81.10
35489;BME280;21602;55.670;37.578;2023-02-28T05:25:18;99131.16;;;-6.92;80.58
35489;BME280;21602;55.670;37.578;2023-02-28T05:27:45;99127.91;;;-6.85;80.86
35489;BME280;21602;55.670;37.578;2023-02-28T05:30:15;99131.50;;;-6.76;80.52
35489;BME280;21602;55.670;37.578;2023-02-28T05:32:41;99117.75;;;-6.67;80.54
35489;BME280;21602;55.670;37.578;2023-02-28T05:35:12;99107.66;;;-6.60;79.83
35489;BME280;21602;55.670;37.578;2023-02-28T05:37:38;99098.22;;;-6.61;79.80
35489;BME280;21602;55.670;37.578;2023-02-28T05:40:06;99094.38;;;-6.67;78.83
35489;BME280;21602;55.670;37.578;2023-02-28T05:42:33;99099.34;;;-6.64;79.45
35489;BME280;21602;55.670;37.578;2023-02-28T05:44:58;99094.97;;;-6.63;78.34
35489;BME280;21602;55.670;37.578;2023-02-28T05:47:25;99081.84;;;-6.62;78.51
35489;BME280;21602;55.670;37.578;2023-02-28T05:49:50;99077.22;;;-6.58;78.40
35489;BME280;21602;55.670;37.578;2023-02-28T05:52:16;99069.03;;;-6.54;78.13
35489;BME280;21602;55.670;37.578;2023-02-28T05:54:42;99065.72;;;-6.56;77.89
35489;BME280;21602;55.670;37.578;2023-02-28T05:57:08;99073.13;;;-6.51;77.80
35489;BME280;21602;55.670;37.578;2023-02-28T05:59:34;99068.06;;;-6.53;76.69
35489;BME280;21602;55.670;37.578;2023-02-28T06:01:59;99066.84;;;-6.49;77.20
35489;BME280;21602;55.670;37.578;2023-02-28T06:04:25;99046.34;;;-6.42;77.17
35489;BME280;21602;55.670;37.578;2023-02-28T06:06:51;99054.84;;;-6.40;76.50
35489;BME280;21602;55.670;37.578;2023-02-28T06:09:18;99050.75;;;-6.33;76.34
35489;BME280;21602;55.670;37.578;2023-02-28T06:11:44;99036.81;;;-6.32;76.23
35489;BME280;21602;55.670;37.578;2023-02-28T06:14:14;99040.25;;;-6.31;76.39
35489;BME280;21602;55.670;37.578;2023-02-28T06:16:41;99022.88;;;-6.31;76.23
35489;BME280;21602;55.670;37.578;2023-02-28T06:19:07;99012.94;;;-6.16;76.17
35489;BME280;21602;55.670;37.578;2023-02-28T06:21:32;99005.66;;;-6.12;75.98
35489;BME280;21602;55.670;37.578;2023-02-28T06:24:01;99008.69;;;-6.07;75.35
35489;BME280;21602;55.670;37.578;2023-02-28T06:26:27;98994.19;;;-6.00;75.50
35489;BME280;21602;55.670;37.578;2023-02-28T06:28:54;98987.50;;;-6.03;74.76
35489;BME280;21602;55.670;37.578;2023-02-28T06:31:20;99017.44;;;-5.99;74.85
35489;BME280;21602;55.670;37.578;2023-02-28T06:33:47;98989.50;;;-5.87;74.84
35489;BME280;21602;55.670;37.578;2023-02-28T06:36:15;98980.88;;;-5.78;73.78
35489;BME280;21602;55.670;37.578;2023-02-28T06:38:41;98984.56;;;-5.71;74.24
35489;BME280;21602;55.670;37.578;2023-02-28T06:41:08;98962.91;;;-5.61;74.35
35489;BME280;21602;55.670;37.578;2023-02-28T06:43:36;98979.88;;;-5.48;73.67
35489;BME280;21602;55.670;37.578;2023-02-28T06:46:05;98991.06;;;-5.37;73.38
35489;BME280;21602;55.670;37.578;2023-02-28T06:48:31;98984.59;;;-5.24;72.85
35489;BME280;21602;55.670;37.578;2023-02-28T06:51:09;98969.09;;;-5.16;72.59
35489;BME280;21602;55.670;37.578;2023-02-28T06:53:35;98967.66;;;-5.00;71.79
35489;BME280;21602;55.670;37.578;2023-02-28T06:56:10;98955.53;;;-4.82;72.13
35489;BME280;21602;55.670;37.578;2023-02-28T06:58:39;98942.88;;;-4.77;71.95
35489;BME280;21602;55.670;37.578;2023-02-28T07:01:06;98928.81;;;-4.84;71.22
35489;BME280;21602;55.670;37.578;2023-02-28T07:03:35;98926.00;;;-4.73;71.87
35489;BME280;21602;55.670;37.578;2023-02-28T07:06:01;98921.09;;;-4.58;71.72
35489;BME280;21602;55.670;37.578;2023-02-28T07:08:28;98911.97;;;-4.44;71.89
35489;BME280;21602;55.670;37.578;2023-02-28T07:10:55;98892.47;;;-4.40;71.39
35489;BME280;21602;55.670;37.578;2023-02-28T07:13:22;98880.53;;;-4.25;71.38
35489;BME280;21602;55.670;37.578;2023-02-28T07:15:56;98907.41;;;-4.24;71.12
35489;BME280;21602;55.670;37.578;2023-02-28T07:18:22;98868.56;;;-4.18;71.33
35489;BME280;21602;55.670;37.578;2023-02-28T07:20:48;98867.50;;;-4.07;71.27
35489;BME280;21602;55.670;37.578;2023-02-28T07:23:14;98870.56;;;-4.12;70.39
35489;BME280;21602;55.670;37.578;2023-02-28T07:25:40;98866.00;;;-4.09;71.61
35489;BME280;21602;55.670;37.578;2023-02-28T07:28:06;98867.69;;;-4.00;71.94
35489;BME280;21602;55.670;37.578;2023-02-28T07:30:34;98843.25;;;-3.99;71.92
35489;BME280;21602;55.670;37.578;2023-02-28T07:32:59;98857.69;;;-3.87;71.79
35489;BME280;21602;55.670;37.578;2023-02-28T07:35:25;98864.13;;;-3.73;71.95
35489;BME280;21602;55.670;37.578;2023-02-28T07:37:51;98860.13;;;-3.59;72.18
35489;BME280;21602;55.670;37.578;2023-02-28T07:40:17;98865.00;;;-3.56;71.83
35489;BME280;21602;55.670;37.578;2023-02-28T07:42:43;98843.31;;;-3.65;71.98
35489;BME280;21602;55.670;37.578;2023-02-28T07:45:10;98842.63;;;-3.67;72.45
35489;BME280;21602;55.670;37.578;2023-02-28T07:47:38;98850.66;;;-3.61;72.68
35489;BME280;21602;55.670;37.578;2023-02-28T07:50:06;98838.75;;;-3.63;72.82
35489;BME280;21602;55.670;37.578;2023-02-28T07:52:32;98840.03;;;-3.67;73.06
35489;BME280;21602;55.670;37.578;2023-02-28T07:54:58;98830.75;;;-3.62;73.19
35489;BME280;21602;55.670;37.578;2023-02-28T07:57:24;98828.81;;;-3.59;73.23
35489;BME280;21602;55.670;37.578;2023-02-28T07:59:50;98805.50;;;-3.53;73.32
35489;BME280;21602;55.670;37.578;2023-02-28T08:02:17;98804.09;;;-3.39;73.23
35489;BME280;21602;55.670;37.578;2023-02-28T08:04:44;98806.75;;;-3.31;73.07
35489;BME280;21602;55.670;37.578;2023-02-28T08:07:12;98816.91;;;-3.20;73.15
35489;BME280;21602;55.670;37.578;2023-02-28T08:09:39;98809.91;;;-3.11;72.58
35489;BME280;21602;55.670;37.578;2023-02-28T08:12:07;98808.81;;;-2.92;72.36
35489;BME280;21602;55.670;37.578;2023-02-28T08:14:37;98803.59;;;-2.84;72.41
35489;BME280;21602;55.670;37.578;2023-02-28T08:17:04;98815.00;;;-2.85;71.83
35489;BME280;21602;55.670;37.578;2023-02-28T08:19:30;98792.50;;;-2.78;71.47
35489;BME280;21602;55.670;37.578;2023-02-28T08:21:56;98802.66;;;-2.75;71.17
35489;BME280;21602;55.670;37.578;2023-02-28T08:24:22;98794.16;;;-2.69;71.83
35489;BME280;21602;55.670;37.578;2023-02-28T08:26:49;98778.47;;;-2.69;71.68
35489;BME280;21602;55.670;37.578;2023-02-28T08:29:15;98776.16;;;-2.72;71.63
35489;BME280;21602;55.670;37.578;2023-02-28T08:31:42;98767.03;;;-2.68;71.51
35489;BME280;21602;55.670;37.578;2023-02-28T08:34:10;98743.34;;;-2.58;71.69
35489;BME280;21602;55.670;37.578;2023-02-28T08:36:36;98739.59;;;-2.55;71.71
35489;BME280;21602;55.670;37.578;2023-02-28T08:39:03;98707.91;;;-2.52;71.75
35489;BME280;21602;55.670;37.578;2023-02-28T08:41:29;98740.91;;;-2.51;71.73
35489;BME280;21602;55.670;37.578;2023-02-28T08:43:55;98732.53;;;-2.39;71.76
35489;BME280;21602;55.670;37.578;2023-02-28T08:46:21;98730.41;;;-2.27;70.91
35489;BME280;21602;55.670;37.578;2023-02-28T08:48:47;98784.50;;;-2.27;70.76
35489;BME280;21602;55.670;37.578;2023-02-28T08:51:17;98799.88;;;-2.41;71.04
35489;BME280;21602;55.670;37.578;2023-02-28T08:53:47;98805.09;;;-2.33;71.42
35489;BME280;21602;55.670;37.578;2023-02-28T08:56:15;98807.19;;;-2.28;71.60
35489;BME280;21602;55.670;37.578;2023-02-28T08:58:46;98798.88;;;-2.32;71.67
35489;BME280;21602;55.670;37.578;2023-02-28T09:01:27;98788.75;;;-2.35;71.97
35489;BME280;21602;55.670;37.578;2023-02-28T09:03:57;98790.38;;;-2.34;72.59
35489;BME280;21602;55.670;37.578;2023-02-28T09:06:25;98779.09;;;-2.18;72.63
35489;BME280;21602;55.670;37.578;2023-02-28T09:08:52;98776.94;;;-2.06;72.22
35489;BME280;21602;55.670;37.578;2023-02-28T09:11:19;98782.50;;;-2.09;72.69
35489;BME280;21602;55.670;37.578;2023-02-28T09:13:45;98749.66;;;-2.20;73.06
35489;BME280;21602;55.670;37.578;2023-02-28T09:16:13;98751.63;;;-2.14;73.21
35489;BME280;21602;55.670;37.578;2023-02-28T09:18:40;98743.13;;;-2.08;73.34
35489;BME280;21602;55.670;37.578;2023-02-28T09:21:08;98722.13;;;-1.91;73.17
35489;BME280;21602;55.670;37.578;2023-02-28T09:23:37;98722.13;;;-1.91;72.82
35489;BME280;21602;55.670;37.578;2023-02-28T09:26:06;98721.50;;;-1.93;72.99
35489;BME280;21602;55.670;37.578;2023-02-28T09:28:32;98705.63;;;-1.92;73.25
35489;BME280;21602;55.670;37.578;2023-02-28T09:30:58;98712.66;;;-1.92;73.39
35489;BME280;21602;55.670;37.578;2023-02-28T09:33:25;98709.66;;;-1.81;73.05
35489;BME280;21602;55.670;37.578;2023-02-28T09:35:58;98735.72;;;-1.96;73.58
35489;BME280;21602;55.670;37.578;2023-02-28T09:38:24;98728.84;;;-1.97;73.96
35489;BME280;21602;55.670;37.578;2023-02-28T09:40:53;98749.09;;;-1.91;73.97
35489;BME280;21602;55.670;37.578;2023-02-28T09:43:25;98730.34;;;-1.94;74.29
35489;BME280;21602;55.670;37.578;2023-02-28T09:46:00;98749.28;;;-1.84;74.11
35489;BME280;21602;55.670;37.578;2023-02-28T09:48:35;98735.88;;;-1.89;74.38
35489;BME280;21602;55.670;37.578;2023-02-28T09:51:28;98731.31;;;-1.95;74.62
35489;BME280;21602;55.670;37.578;2023-02-28T09:53:51;98713.28;;;-1.90;74.77
35489;BME280;21602;55.670;37.578;2023-02-28T09:56:43;98697.25;;;-1.79;74.45
35489;BME280;21602;55.670;37.578;2023-02-28T10:04:34;98700.56;;;-1.85;74.64
35489;BME280;21602;55.670;37.578;2023-02-28T10:07:12;98691.53;;;-1.83;74.80
35489;BME280;21602;55.670;37.578;2023-02-28T10:09:47;98679.75;;;-1.78;74.67
35489;BME280;21602;55.670;37.578;2023-02-28T10:12:16;98673.34;;;-1.76;74.76
35489;BME280;21602;55.670;37.578;2023-02-28T10:14:46;98677.44;;;-1.73;74.56
35489;BME280;21602;55.670;37.578;2023-02-28T10:17:23;98673.91;;;-1.89;74.86
35489;BME280;21602;55.670;37.578;2023-02-28T10:19:59;98654.78;;;-1.89;74.81
35489;BME280;21602;55.670;37.578;2023-02-28T10:22:35;98647.09;;;-1.91;75.12
35489;BME280;21602;55.670;37.578;2023-02-28T10:25:19;98648.91;;;-1.99;75.39
35489;BME280;21602;55.670;37.578;2023-02-28T10:27:45;98643.69;;;-1.99;75.73
35489;BME280;21602;55.670;37.578;2023-02-28T10:30:12;98644.06;;;-2.11;76.08
35489;BME280;21602;55.670;37.578;2023-02-28T10:32:40;98632.25;;;-1.98;76.04
35489;BME280;21602;55.670;37.578;2023-02-28T10:35:22;98621.66;;;-2.05;76.31
35489;BME280;21602;55.670;37.578;2023-02-28T10:37:57;98627.34;;;-2.01;76.21
35489;BME280;21602;55.670;37.578;2023-02-28T10:43:16;98632.16;;;-1.82;76.23
35489;BME280;21602;55.670;37.578;2023-02-28T10:48:33;98620.47;;;-1.94;76.80
35489;BME280;21602;55.670;37.578;2023-02-28T10:51:01;98631.09;;;-1.96;77.08
35489;BME280;21602;55.670;37.578;2023-02-28T10:53:31;98622.72;;;-1.91;77.56
35489;BME280;21602;55.670;37.578;2023-02-28T11:03:57;98599.00;;;-1.59;76.85
35489;BME280;21602;55.670;37.578;2023-02-28T11:06:26;98616.59;;;-1.52;76.75
35489;BME280;21602;55.670;37.578;2023-02-28T11:09:25;98601.38;;;-1.49;76.76
35489;BME280;21602;55.670;37.578;2023-02-28T11:11:55;98590.44;;;-1.52;76.93
35489;BME280;21602;55.670;37.578;2023-02-28T11:14:26;98584.91;;;-1.58;77.27
35489;BME280;21602;55.670;37.578;2023-02-28T11:16:55;98587.88;;;-1.61;77.52
35489;BME280;21602;55.670;37.578;2023-02-28T11:19:33;98581.19;;;-1.63;77.63
35489;BME280;21602;55.670;37.578;2023-02-28T11:22:02;98588.22;;;-1.64;77.96
35489;BME280;21602;55.670;37.578;2023-02-28T11:24:39;98583.69;;;-1.70;78.10
35489;BME280;21602;55.670;37.578;2023-02-28T11:29:57;98578.56;;;-1.86;79.08
35489;BME280;21602;55.670;37.578;2023-02-28T11:32:24;98578.91;;;-1.89;79.06
35489;BME280;21602;55.670;37.578;2023-02-28T11:35:17;98568.44;;;-1.89;79.43
35489;BME280;21602;55.670;37.578;2023-02-28T11:37:49;98569.75;;;-1.85;79.35
35489;BME280;21602;55.670;37.578;2023-02-28T11:46:12;98557.25;;;-1.75;79.22
35489;BME280;21602;55.670;37.578;2023-02-28T11:51:35;98550.81;;;-1.72;79.26
35489;BME280;21602;55.670;37.578;2023-02-28T12:02:28;98552.28;;;-1.70;80.00
35489;BME280;21602;55.670;37.578;2023-02-28T12:05:05;98557.53;;;-1.70;80.31
35489;BME280;21602;55.670;37.578;2023-02-28T12:10:25;98536.41;;;-1.68;81.65
35489;BME280;21602;55.670;37.578;2023-02-28T12:21:30;98524.84;;;-1.74;83.64
35489;BME280;21602;55.670;37.578;2023-02-28T12:24:17;98525.78;;;-1.90;85.15
35489;BME280;21602;55.670;37.578;2023-02-28T12:26:50;98533.63;;;-1.90;84.21
35489;BME280;21602;55.670;37.578;2023-02-28T12:29:28;98528.44;;;-1.98;85.46
35489;BME280;21602;55.670;37.578;2023-02-28T12:35:05;98528.97;;;-2.02;86.45
35489;BME280;21602;55.670;37.578;2023-02-28T12:40:27;98511.75;;;-1.97;87.02
35489;BME280;21602;55.670;37.578;2023-02-28T12:43:00;98513.56;;;-1.97;86.92
35489;BME280;21602;55.670;37.578;2023-02-28T12:45:53;98506.06;;;-2.00;87.45
35489;BME280;21602;55.670;37.578;2023-02-28T12:51:02;98491.41;;;-2.10;88.87
35489;BME280;21602;55.670;37.578;2023-02-28T12:54:44;98491.75;;;-2.13;89.39
35489;BME280;21602;55.670;37.578;2023-02-28T12:59:49;98474.44;;;-2.14;89.41
35489;BME280;21602;55.670;37.578;2023-02-28T13:05:29;98464.97;;;-2.15;90.04
35489;BME280;21602;55.670;37.578;2023-02-28T13:10:48;98440.66;;;-2.00;89.06
35489;BME280;21602;55.670;37.578;2023-02-28T13:13:23;98440.22;;;-2.04;88.89
35489;BME280;21602;55.670;37.578;2023-02-28T13:16:02;98449.22;;;-2.07;89.36
35489;BME280;21602;55.670;37.578;2023-02-28T13:18:35;98444.31;;;-2.10;89.27
35489;BME280;21602;55.670;37.578;2023-02-28T13:21:04;98442.19;;;-2.06;89.04
35489;BME280;21602;55.670;37.578;2023-02-28T13:26:03;98433.00;;;-2.02;89.24
35489;BME280;21602;55.670;37.578;2023-02-28T13:31:16;98429.88;;;-1.97;89.30
35489;BME280;21602;55.670;37.578;2023-02-28T13:38:55;98441.22;;;-1.90;89.36
35489;BME280;21602;55.670;37.578;2023-02-28T13:44:17;98437.75;;;-1.83;89.12
35489;BME280;21602;55.670;37.578;2023-02-28T13:55:02;98415.66;;;-1.80;89.11
35489;BME280;21602;55.670;37.578;2023-02-28T13:58:09;98403.22;;;-1.78;89.28
35489;BME280;21602;55.670;37.578;2023-02-28T14:04:06;98396.44;;;-1.72;89.23
35489;BME280;21602;55.670;37.578;2023-02-28T14:06:37;98402.06;;;-1.75;89.59
35489;BME280;21602;55.670;37.578;2023-02-28T14:11:40;98403.16;;;-1.70;89.76
35489;BME280;21602;55.670;37.578;2023-02-28T14:14:08;98406.09;;;-1.73;90.19
35489;BME280;21602;55.670;37.578;2023-02-28T14:16:46;98406.38;;;-1.68;89.83
35489;BME280;21602;55.670;37.578;2023-02-28T14:19:29;98408.94;;;-1.60;89.72
35489;BME280;21602;55.670;37.578;2023-02-28T14:22:09;98405.97;;;-1.57;90.06
35489;BME280;21602;55.670;37.578;2023-02-28T14:32:59;98409.41;;;-1.41;90.01
35489;BME280;21602;55.670;37.578;2023-02-28T14:38:24;98387.66;;;-1.42;90.00
35489;BME280;21602;55.670;37.578;2023-02-28T14:40:55;98385.56;;;-1.46;90.39
35489;BME280;21602;55.670;37.578;2023-02-28T14:43:27;98364.78;;;-1.48;90.92
35489;BME280;21602;55.670;37.578;2023-02-28T14:46:00;98377.44;;;-1.51;91.82
35489;BME280;21602;55.670;37.578;2023-02-28T14:48:27;98372.56;;;-1.55;92.83
35489;BME280;21602;55.670;37.578;2023-02-28T14:50:57;98358.75;;;-1.48;93.58
35489;BME280;21602;55.670;37.578;2023-02-28T14:53:27;98359.00;;;-1.43;93.53
35489;BME280;21602;55.670;37.578;2023-02-28T14:55:54;98368.50;;;-1.42;93.00
35489;BME280;21602;55.670;37.578;2023-02-28T14:58:28;98360.66;;;-1.42;93.42
35489;BME280;21602;55.670;37.578;2023-02-28T15:00:59;98355.59;;;-1.44;93.16
35489;BME280;21602;55.670;37.578;2023-02-28T15:03:34;98356.94;;;-1.48;93.59
35489;BME280;21602;55.670;37.578;2023-02-28T15:06:03;98347.28;;;-1.47;93.71
35489;BME280;21602;55.670;37.578;2023-02-28T15:08:30;98350.53;;;-1.45;93.42
35489;BME280;21602;55.670;37.578;2023-02-28T15:11:11;98362.81;;;-1.46;93.87
35489;BME280;21602;55.670;37.578;2023-02-28T15:14:14;98360.66;;;-1.42;93.82
35489;BME280;21602;55.670;37.578;2023-02-28T15:16:42;98355.69;;;-1.37;93.66
35489;BME280;21602;55.670;37.578;2023-02-28T15:19:25;98352.22;;;-1.38;94.04
35489;BME280;21602;55.670;37.578;2023-02-28T15:22:02;98352.00;;;-1.28;94.16
35489;BME280;21602;55.670;37.578;2023-02-28T15:24:42;98345.00;;;-1.21;93.88